Time;durP1;ratioP1;P1;durP2;ratioP2;P2;SDS_P1;SDS_P2;PMS_P1;PMS_P2;Temp;Humidity;BMP_temperature;BMP_pressure;BME280_temperature;BME280_humidity;BME280_pressure;Samples;Min_cycle;Max_cycle;Signal;HPM_P1;HPM_P2
2022/11/10 00:00:41;;;;;;;25.07;21.47;;;10.20;99.90;;;;;;5062233;28;20240;-53
2022/11/10 00:03:09;;;;;;;26.60;20.97;;;10.30;99.90;;;;;;5049507;28;20204;-52
2022/11/10 00:05:37;;;;;;;26.40;21.90;;;10.20;99.90;;;;;;5062332;28;20627;-53
2022/11/10 00:08:06;;;;;;;23.43;20.90;;;10.20;99.90;;;;;;5067543;28;20716;-51
2022/11/10 00:10:55;;;;;;;27.97;23.47;;;10.20;99.90;;;;;;5071581;28;20215;-52
2022/11/10 00:13:25;;;;;;;27.27;21.53;;;10.20;99.90;;;;;;5057540;28;20214;-53
2022/11/10 00:18:37;;;;;;;28.10;23.80;;;10.20;99.90;;;;;;5068088;28;20344;-52
2022/11/10 00:21:06;;;;;;;25.30;21.77;;;10.20;99.90;;;;;;5061027;28;20817;-51
2022/11/10 00:23:33;;;;;;;28.13;23.10;;;10.20;99.90;;;;;;5061862;28;20212;-51
2022/11/10 00:26:00;;;;;;;25.00;22.20;;;10.30;99.90;;;;;;5069758;28;20262;-52
2022/11/10 00:28:31;;;;;;;29.13;22.10;;;10.30;99.90;;;;;;5053660;28;20228;-50
2022/11/10 00:30:58;;;;;;;25.77;21.77;;;10.30;99.90;;;;;;5054118;28;20221;-51
2022/11/10 00:33:25;;;;;;;25.00;21.83;;;10.20;99.90;;;;;;5061977;28;20200;-50
2022/11/10 00:35:52;;;;;;;26.90;22.23;;;10.20;99.90;;;;;;5061784;28;20203;-50
2022/11/10 00:38:19;;;;;;;24.90;21.87;;;10.20;99.90;;;;;;5061679;28;20764;-51
2022/11/10 00:40:47;;;;;;;25.27;21.90;;;10.30;99.90;;;;;;5071533;28;20720;-52
2022/11/10 00:43:14;;;;;;;27.33;22.40;;;10.30;99.90;;;;;;5062835;28;20197;-52
2022/11/10 00:45:44;;;;;;;28.33;23.73;;;10.20;99.90;;;;;;5063206;28;20202;-51
2022/11/10 00:48:10;;;;;;;25.87;22.67;;;10.20;99.90;;;;;;5058779;28;20233;-51
2022/11/10 00:50:38;;;;;;;28.33;21.43;;;10.20;99.90;;;;;;5066606;28;20766;-51
2022/11/10 00:53:05;;;;;;;25.87;21.17;;;10.20;99.90;;;;;;5070304;28;20253;-51
2022/11/10 00:55:32;;;;;;;24.73;21.53;;;10.20;99.90;;;;;;5068059;28;20261;-51
2022/11/10 00:57:59;;;;;;;23.93;21.27;;;10.20;99.90;;;;;;5051683;28;20277;-51
2022/11/10 01:00:26;;;;;;;27.20;23.27;;;10.20;99.90;;;;;;5068804;28;20192;-51
2022/11/10 01:02:54;;;;;;;28.27;23.67;;;10.20;99.90;;;;;;5056065;28;20199;-51
2022/11/10 01:05:21;;;;;;;26.63;23.50;;;10.10;99.90;;;;;;5066742;28;20254;-52
2022/11/10 01:07:48;;;;;;;25.43;21.57;;;10.20;99.90;;;;;;5061435;28;20703;-51
2022/11/10 01:10:16;;;;;;;27.53;22.53;;;10.20;99.90;;;;;;5068506;28;20640;-51
2022/11/10 01:12:43;;;;;;;24.97;22.03;;;10.30;99.90;;;;;;5049479;28;20197;-50
2022/11/10 01:15:10;;;;;;;29.17;23.30;;;10.30;99.90;;;;;;5061573;28;20250;-51
2022/11/10 01:17:37;;;;;;;24.23;21.80;;;10.40;99.90;;;;;;5062048;28;20224;-51
2022/11/10 01:20:07;;;;;;;24.83;21.67;;;10.40;99.90;;;;;;5061433;28;20262;-51
2022/11/10 01:22:34;;;;;;;25.20;21.27;;;10.40;99.90;;;;;;5058886;28;20301;-50
2022/11/10 01:25:01;;;;;;;24.23;21.63;;;10.40;99.90;;;;;;5046342;28;20199;-51
2022/11/10 01:27:28;;;;;;;23.97;21.37;;;10.40;99.90;;;;;;5060361;28;20775;-50
2022/11/10 01:29:55;;;;;;;26.63;22.47;;;10.30;99.90;;;;;;5066903;28;20686;-51
2022/11/10 01:32:22;;;;;;;25.13;21.90;;;10.30;99.90;;;;;;5067002;28;20203;-51
2022/11/10 01:34:49;;;;;;;24.93;21.67;;;10.30;99.90;;;;;;5060912;28;20257;-53
2022/11/10 01:37:17;;;;;;;26.10;21.77;;;10.30;99.90;;;;;;5067481;28;20224;-51
2022/11/10 01:39:44;;;;;;;27.07;21.33;;;10.30;99.90;;;;;;5059751;28;20205;-51
2022/11/10 01:42:11;;;;;;;23.27;20.97;;;10.30;99.90;;;;;;5066006;28;20194;-52
2022/11/10 01:44:41;;;;;;;22.63;19.93;;;10.20;99.90;;;;;;5066246;28;20209;-51
2022/11/10 01:47:08;;;;;;;25.33;22.17;;;10.20;99.90;;;;;;5069776;28;20230;-51
2022/11/10 01:49:36;;;;;;;22.43;19.13;;;10.20;99.90;;;;;;5054648;28;20216;-51
2022/11/10 01:52:08;;;;;;;24.13;21.13;;;10.20;99.90;;;;;;5061099;28;20219;-50
2022/11/10 01:54:39;;;;;;;26.20;21.00;;;10.30;99.90;;;;;;5069501;28;20207;-52
2022/11/10 01:57:08;;;;;;;24.97;20.43;;;10.30;99.90;;;;;;5061465;28;20226;-50
2022/11/10 01:59:42;;;;;;;25.43;21.13;;;10.20;99.90;;;;;;5059236;28;20270;-51
2022/11/10 02:02:14;;;;;;;24.37;21.77;;;10.20;99.90;;;;;;5052753;28;20256;-51
2022/11/10 02:04:42;;;;;;;24.10;21.50;;;10.20;99.90;;;;;;5061104;28;20256;-51
2022/11/10 02:07:10;;;;;;;27.10;22.70;;;10.20;99.90;;;;;;5060162;28;20223;-50
2022/11/10 02:09:39;;;;;;;25.63;22.43;;;10.20;99.90;;;;;;5051773;28;20273;-51
2022/11/10 02:12:06;;;;;;;26.03;22.53;;;10.20;99.90;;;;;;5064038;28;20276;-51
2022/11/10 02:14:33;;;;;;;22.50;20.10;;;10.20;99.90;;;;;;5058182;28;20673;-52
2022/11/10 02:17:01;;;;;;;27.90;23.53;;;10.20;99.90;;;;;;5069540;28;20274;-50
2022/11/10 02:19:28;;;;;;;24.73;21.43;;;10.20;99.90;;;;;;5070106;28;20226;-50
2022/11/10 02:21:56;;;;;;;26.20;20.87;;;10.20;99.90;;;;;;5061707;28;20204;-51
2022/11/10 02:24:23;;;;;;;24.40;21.80;;;10.20;99.90;;;;;;5059967;28;20205;-51
2022/11/10 02:26:54;;;;;;;23.93;20.90;;;10.20;99.90;;;;;;5056136;28;20198;-51
2022/11/10 02:29:23;;;;;;;23.93;21.30;;;10.20;99.90;;;;;;5066633;28;20203;-51
2022/11/10 02:31:50;;;;;;;25.37;21.70;;;10.20;99.90;;;;;;5068789;28;20778;-50
2022/11/10 02:34:19;;;;;;;27.90;22.60;;;10.30;99.90;;;;;;5071724;28;20251;-52
2022/11/10 02:36:46;;;;;;;24.87;20.33;;;10.30;99.90;;;;;;5068555;28;20277;-50
2022/11/10 02:39:15;;;;;;;23.93;19.93;;;10.30;99.90;;;;;;5057783;28;20280;-52
2022/11/10 02:41:42;;;;;;;24.57;21.93;;;10.20;99.90;;;;;;5051024;28;20204;-53
2022/11/10 02:44:09;;;;;;;27.47;21.80;;;10.30;99.90;;;;;;5062001;28;20205;-51
2022/11/10 02:46:36;;;;;;;24.77;20.60;;;10.30;99.90;;;;;;5067871;28;20247;-51
2022/11/10 02:49:03;;;;;;;26.57;21.70;;;10.20;99.90;;;;;;5050470;28;20228;-50
2022/11/10 02:51:30;;;;;;;24.70;22.00;;;10.30;99.90;;;;;;5056763;28;20220;-51
2022/11/10 02:53:57;;;;;;;22.20;19.70;;;10.30;99.90;;;;;;5060423;28;20869;-51
2022/11/10 02:56:26;;;;;;;24.50;21.63;;;10.30;99.90;;;;;;5052379;28;20242;-50
2022/11/10 02:58:53;;;;;;;25.83;21.97;;;10.30;99.90;;;;;;5060273;28;20757;-51
2022/11/10 03:01:20;;;;;;;25.93;22.03;;;10.30;99.90;;;;;;5069287;28;20680;-52
2022/11/10 03:03:46;;;;;;;28.70;23.10;;;10.30;99.90;;;;;;5059750;28;20586;-51
2022/11/10 03:06:13;;;;;;;27.80;23.63;;;10.30;99.90;;;;;;5063567;28;20804;-51
2022/11/10 03:08:40;;;;;;;30.13;24.90;;;10.40;99.90;;;;;;5068103;28;20273;-51
2022/11/10 03:11:07;;;;;;;32.43;27.00;;;10.30;99.90;;;;;;5071061;28;20633;-51
2022/11/10 03:13:36;;;;;;;31.90;25.20;;;10.30;99.90;;;;;;5051589;28;20233;-51
2022/11/10 03:16:03;;;;;;;32.33;24.77;;;10.30;99.90;;;;;;5045970;28;20298;-51
2022/11/10 03:18:30;;;;;;;30.77;23.60;;;10.40;99.90;;;;;;5055388;28;20228;-51
2022/11/10 03:20:57;;;;;;;27.53;23.73;;;10.40;99.90;;;;;;5064125;28;20205;-51
2022/11/10 03:23:24;;;;;;;31.13;23.00;;;10.40;99.90;;;;;;5061201;28;20597;-50
2022/11/10 03:25:51;;;;;;;30.10;24.43;;;10.30;99.90;;;;;;5060959;28;20605;-52
2022/11/10 03:28:17;;;;;;;27.27;24.13;;;10.40;99.90;;;;;;5060153;28;20603;-50
2022/11/10 03:30:46;;;;;;;28.50;24.97;;;10.40;99.90;;;;;;5052989;28;20278;-52
2022/11/10 03:33:13;;;;;;;31.80;24.90;;;10.50;99.90;;;;;;5060899;28;20202;-51
2022/11/10 03:35:40;;;;;;;28.43;24.13;;;10.40;99.90;;;;;;5061364;28;20617;-51
2022/11/10 03:38:07;;;;;;;32.47;26.47;;;10.40;99.90;;;;;;5062471;28;20778;-51
2022/11/10 03:40:34;;;;;;;32.67;26.00;;;10.30;99.90;;;;;;5062373;28;20617;-51
2022/11/10 03:43:01;;;;;;;36.03;27.90;;;10.30;99.90;;;;;;5053072;28;20195;-52
2022/11/10 03:45:28;;;;;;;22.40;19.57;;;10.30;99.90;;;;;;5055176;28;20208;-51
2022/11/10 03:47:56;;;;;;;20.57;16.63;;;10.40;99.90;;;;;;5064539;28;20230;-52
2022/11/10 03:50:23;;;;;;;11.57;9.93;;;10.40;99.90;;;;;;5061895;28;20207;-51
2022/11/10 03:52:50;;;;;;;8.23;7.43;;;10.40;99.90;;;;;;5057855;28;20224;-51
2022/11/10 03:55:18;;;;;;;7.80;6.93;;;10.40;99.90;;;;;;5043656;28;20635;-53
2022/11/10 03:57:45;;;;;;;4.73;3.57;;;10.40;99.90;;;;;;5055831;28;20598;-52
2022/11/10 04:00:14;;;;;;;3.13;2.73;;;10.30;99.90;;;;;;5058803;28;20201;-51
2022/11/10 04:02:41;;;;;;;2.50;2.30;;;10.30;99.90;;;;;;5064221;28;20207;-51
2022/11/10 04:10:43;;;;;;;5.27;2.40;;;10.30;99.90;;;;;;5069324;28;20234;-52
2022/11/10 04:15:55;;;;;;;1.47;1.37;;;10.20;99.90;;;;;;5064538;28;20208;-51
2022/11/10 04:18:24;;;;;;;5.03;2.20;;;10.20;99.90;;;;;;5062559;28;20234;-50
2022/11/10 04:20:54;;;;;;;2.17;1.97;;;10.20;99.90;;;;;;5045905;28;20291;-50
2022/11/10 04:23:29;;;;;;;1.83;1.50;;;10.20;99.90;;;;;;5056907;28;20246;-50
2022/11/10 04:28:45;;;;;;;4.23;1.93;;;10.20;99.90;;;;;;5059144;28;20230;-52
2022/11/10 04:31:12;;;;;;;2.03;1.93;;;10.10;99.90;;;;;;5063764;28;20276;-53
2022/11/10 04:33:40;;;;;;;2.13;1.73;;;10.10;99.90;;;;;;5057198;28;20263;-52
2022/11/10 04:36:11;;;;;;;2.10;2.00;;;10.00;99.90;;;;;;5052981;28;20203;-51
2022/11/10 04:38:39;;;;;;;2.30;1.80;;;9.90;99.90;;;;;;5054956;28;20220;-51
2022/11/10 04:41:06;;;;;;;2.17;1.50;;;10.00;99.90;;;;;;5069277;28;20195;-51
2022/11/10 04:43:34;;;;;;;3.13;2.57;;;10.00;99.90;;;;;;5051398;28;20205;-51
2022/11/10 04:46:01;;;;;;;1.60;1.50;;;10.00;99.90;;;;;;5064968;28;20226;-52
2022/11/10 04:48:29;;;;;;;4.55;1.95;;;9.90;99.90;;;;;;5020453;28;1097280;-51
2022/11/10 04:50:56;;;;;;;2.90;1.63;;;9.90;99.90;;;;;;5058952;28;20265;-51
2022/11/10 04:53:25;;;;;;;1.90;1.60;;;9.90;99.90;;;;;;5061273;28;20204;-51
2022/11/10 04:55:53;;;;;;;4.23;2.50;;;9.90;99.90;;;;;;5063727;28;20281;-51
2022/11/10 04:58:20;;;;;;;1.70;1.60;;;9.90;99.90;;;;;;5055893;28;20373;-51
2022/11/10 05:00:47;;;;;;;3.80;2.87;;;9.90;99.90;;;;;;5065483;28;20204;-51
2022/11/10 05:03:14;;;;;;;4.00;2.87;;;9.90;99.90;;;;;;5060218;28;20264;-51
2022/11/10 05:05:42;;;;;;;5.00;2.37;;;9.90;99.90;;;;;;5072613;28;20257;-51
2022/11/10 05:08:09;;;;;;;3.53;2.60;;;9.90;99.90;;;;;;5063297;28;20221;-53
2022/11/10 05:10:38;;;;;;;2.50;2.30;;;9.90;99.90;;;;;;5066599;28;20261;-51
2022/11/10 05:13:06;;;;;;;2.97;1.53;;;9.80;99.90;;;;;;5066093;28;20270;-51
2022/11/10 05:15:33;;;;;;;3.53;2.70;;;9.80;99.90;;;;;;5065102;28;20260;-51
2022/11/10 05:18:00;;;;;;;2.47;0.97;;;9.80;99.90;;;;;;5047895;28;20236;-51
2022/11/10 05:20:28;;;;;;;3.20;1.43;;;9.80;99.90;;;;;;5058011;28;20211;-50
2022/11/10 05:25:43;;;;;;;4.17;1.20;;;9.80;99.90;;;;;;5057242;28;20689;-51
2022/11/10 05:28:12;;;;;;;1.63;1.00;;;9.90;99.90;;;;;;5055669;28;20257;-51
2022/11/10 05:30:39;;;;;;;2.00;1.73;;;9.90;99.90;;;;;;5059893;28;20635;-49
2022/11/10 05:33:06;;;;;;;6.63;2.67;;;10.00;99.90;;;;;;5068650;28;20274;-50
2022/11/10 05:35:34;;;;;;;4.63;2.67;;;10.00;99.90;;;;;;5052783;28;20682;-50
2022/11/10 05:38:01;;;;;;;3.90;3.10;;;10.00;99.90;;;;;;5052708;28;20282;-51
2022/11/10 05:40:28;;;;;;;4.53;3.50;;;10.00;99.90;;;;;;5044127;28;20258;-52
2022/11/10 05:42:57;;;;;;;5.70;2.90;;;9.90;99.90;;;;;;5055265;28;20652;-50
2022/11/10 05:45:26;;;;;;;4.27;3.03;;;9.90;99.90;;;;;;5039138;28;20229;-52
2022/11/10 05:47:53;;;;;;;4.00;2.67;;;9.90;99.90;;;;;;5051814;28;20235;-50
2022/11/10 05:50:22;;;;;;;2.87;2.63;;;9.80;99.90;;;;;;5053070;28;20209;-49
2022/11/10 05:52:51;;;;;;;4.83;3.30;;;9.80;99.90;;;;;;5051850;28;20585;-51
2022/11/10 05:55:20;;;;;;;2.70;2.50;;;9.80;99.90;;;;;;5065723;28;20220;-51
2022/11/10 05:57:49;;;;;;;2.30;2.20;;;9.80;99.90;;;;;;5056987;28;20675;-51
2022/11/10 06:00:21;;;;;;;1.70;1.60;;;9.90;99.90;;;;;;5052552;28;20206;-51
2022/11/10 06:02:58;;;;;;;2.80;2.20;;;9.90;99.90;;;;;;5048749;28;20208;-52
2022/11/10 06:05:25;;;;;;;2.20;2.10;;;9.90;99.90;;;;;;5051411;28;20208;-52
2022/11/10 06:07:52;;;;;;;2.93;2.23;;;9.90;99.90;;;;;;5070788;28;20223;-51
2022/11/10 06:10:19;;;;;;;2.87;2.67;;;9.90;99.90;;;;;;5051990;28;20231;-51
2022/11/10 06:12:46;;;;;;;2.67;1.80;;;10.00;99.90;;;;;;5032359;28;20649;-52
2022/11/10 06:15:14;;;;;;;3.53;2.37;;;9.90;99.90;;;;;;5048593;28;20208;-51
2022/11/10 06:17:43;;;;;;;2.47;2.30;;;9.90;99.90;;;;;;5052273;28;20260;-51
2022/11/10 06:20:11;;;;;;;2.87;2.47;;;9.80;99.90;;;;;;5052084;28;20239;-51
2022/11/10 06:22:38;;;;;;;3.07;2.87;;;9.80;99.90;;;;;;5052027;28;20738;-53
2022/11/10 06:25:07;;;;;;;2.53;2.43;;;9.80;99.90;;;;;;5051256;28;20279;-53
2022/11/10 06:27:34;;;;;;;3.67;2.83;;;9.80;99.90;;;;;;5055913;28;20601;-51
2022/11/10 06:30:01;;;;;;;2.70;2.43;;;9.70;99.90;;;;;;5065802;28;20212;-52
2022/11/10 06:32:28;;;;;;;3.60;2.23;;;9.70;99.90;;;;;;5050071;28;20250;-51
2022/11/10 06:34:57;;;;;;;2.33;2.13;;;9.70;99.90;;;;;;5071106;28;20210;-51
2022/11/10 06:37:24;;;;;;;3.53;3.23;;;9.70;99.90;;;;;;5056728;28;20915;-51
2022/11/10 06:39:51;;;;;;;2.53;2.37;;;9.70;99.90;;;;;;5050863;28;20621;-52
2022/11/10 06:42:18;;;;;;;4.23;3.00;;;9.60;99.90;;;;;;5057259;28;20201;-51
2022/11/10 06:44:45;;;;;;;3.20;2.77;;;9.60;99.90;;;;;;5066187;28;20199;-50
2022/11/10 06:47:13;;;;;;;3.50;3.30;;;9.60;99.90;;;;;;5045832;28;20236;-51
2022/11/10 06:49:40;;;;;;;4.13;3.63;;;9.60;99.90;;;;;;5045849;28;20223;-50
2022/11/10 06:52:08;;;;;;;3.53;3.10;;;9.50;99.90;;;;;;5060442;28;20226;-51
2022/11/10 06:54:35;;;;;;;3.93;3.53;;;9.50;99.90;;;;;;5060634;28;20201;-53
2022/11/10 06:57:02;;;;;;;3.93;3.73;;;9.50;99.90;;;;;;5051399;28;20228;-51
2022/11/10 06:59:29;;;;;;;4.87;4.43;;;9.50;99.90;;;;;;5058629;28;20201;-52
2022/11/10 07:01:56;;;;;;;5.10;4.60;;;9.40;99.90;;;;;;5055367;28;20201;-52
2022/11/10 07:04:23;;;;;;;4.10;3.77;;;9.40;99.90;;;;;;5056536;28;20212;-50
2022/11/10 07:06:50;;;;;;;3.87;3.60;;;9.40;99.90;;;;;;5052620;28;20204;-51
2022/11/10 07:09:22;;;;;;;4.93;4.50;;;9.40;99.90;;;;;;5071158;28;20199;-51
2022/11/10 07:11:49;;;;;;;4.60;4.17;;;9.40;99.90;;;;;;5071234;28;20223;-50
2022/11/10 07:14:16;;;;;;;4.60;4.17;;;9.40;99.90;;;;;;5061038;28;20204;-50
2022/11/10 07:16:43;;;;;;;4.50;4.20;;;9.40;99.90;;;;;;5061407;28;22654;-49
2022/11/10 07:19:10;;;;;;;4.47;4.07;;;9.30;99.90;;;;;;5055793;28;20207;-49
2022/11/10 07:21:37;;;;;;;7.20;5.17;;;9.30;99.90;;;;;;5054592;28;20203;-49
2022/11/10 07:24:05;;;;;;;5.53;5.07;;;9.40;99.90;;;;;;5063324;28;20216;-49
2022/11/10 07:26:34;;;;;;;5.10;4.63;;;9.30;99.90;;;;;;5049824;28;20692;-49
2022/11/10 07:29:01;;;;;;;6.93;6.33;;;9.40;99.90;;;;;;5037863;28;20707;-49
2022/11/10 07:31:28;;;;;;;8.03;5.57;;;9.40;99.90;;;;;;5043148;28;20920;-49
2022/11/10 07:33:55;;;;;;;8.60;5.10;;;9.50;99.90;;;;;;5043291;28;20334;-50
2022/11/10 07:36:22;;;;;;;7.33;6.17;;;9.50;99.90;;;;;;5035575;28;20200;-50
2022/11/10 07:38:49;;;;;;;9.60;7.73;;;9.60;99.90;;;;;;5043810;28;20224;-49
2022/11/10 07:41:16;;;;;;;8.37;6.50;;;9.70;99.90;;;;;;5050897;28;20205;-49
2022/11/10 07:43:44;;;;;;;6.67;6.07;;;9.80;99.90;;;;;;5038798;28;20204;-49
2022/11/10 07:46:11;;;;;;;7.90;6.40;;;9.90;99.90;;;;;;5047937;28;20671;-49
2022/11/10 07:48:38;;;;;;;7.87;6.17;;;9.90;99.90;;;;;;5046518;28;20227;-49
2022/11/10 07:51:06;;;;;;;8.30;7.00;;;10.00;99.90;;;;;;5037395;28;20207;-49
2022/11/10 07:53:33;;;;;;;8.67;7.83;;;10.00;99.90;;;;;;5049667;28;20225;-49
2022/11/10 07:56:00;;;;;;;9.07;7.20;;;10.10;99.90;;;;;;5039029;28;20670;-49
2022/11/10 07:58:28;;;;;;;7.23;6.53;;;10.20;99.90;;;;;;5053014;28;20724;-49
2022/11/10 08:00:56;;;;;;;7.87;7.07;;;10.30;99.90;;;;;;5056812;28;20281;-49
2022/11/10 08:03:23;;;;;;;6.43;5.83;;;10.30;99.90;;;;;;5057786;28;20642;-50
2022/11/10 08:05:51;;;;;;;9.73;6.90;;;10.40;99.90;;;;;;5045575;28;20207;-49
2022/11/10 08:08:18;;;;;;;8.27;7.47;;;10.40;99.90;;;;;;5057312;28;20229;-50
2022/11/10 08:10:45;;;;;;;7.63;6.53;;;10.40;99.90;;;;;;5068575;28;20203;-49
2022/11/10 08:13:13;;;;;;;6.73;6.13;;;10.50;99.90;;;;;;5063036;28;20226;-49
2022/11/10 08:15:41;;;;;;;8.97;6.07;;;10.50;99.90;;;;;;5051013;28;20209;-49
2022/11/10 08:18:16;;;;;;;8.07;5.67;;;10.60;99.90;;;;;;5048927;28;20253;-49
2022/11/10 08:20:44;;;;;;;8.07;6.03;;;10.70;99.90;;;;;;5045237;28;20619;-50
2022/11/10 08:23:11;;;;;;;5.85;5.30;;;10.70;99.90;;;;;;5047491;28;20459;-49
2022/11/10 08:25:39;;;;;;;6.10;5.50;;;10.80;99.90;;;;;;5068340;28;20218;-50
2022/11/10 08:28:08;;;;;;;6.67;6.00;;;10.90;99.90;;;;;;5074193;28;20314;-49
2022/11/10 08:30:37;;;;;;;7.97;4.83;;;11.00;99.90;;;;;;5065903;28;20595;-48
2022/11/10 08:33:06;;;;;;;6.10;5.57;;;11.20;99.90;;;;;;5054007;28;20229;-48
2022/11/10 08:35:36;;;;;;;7.07;5.73;;;11.20;99.90;;;;;;5060662;28;20204;-49
2022/11/10 08:38:07;;;;;;;8.83;6.03;;;11.30;99.90;;;;;;5045478;28;20224;-49
2022/11/10 08:40:34;;;;;;;8.10;5.13;;;11.40;99.90;;;;;;5037938;28;20209;-49
2022/11/10 08:43:06;;;;;;;6.20;4.93;;;11.70;99.90;;;;;;5055082;28;20204;-49
2022/11/10 08:45:34;;;;;;;4.83;3.73;;;12.40;99.90;;;;;;5065096;28;20503;-50
2022/11/10 08:48:04;;;;;;;4.47;4.17;;;13.30;99.90;;;;;;5051735;28;20329;-49
2022/11/10 08:50:31;;;;;;;4.67;4.27;;;14.00;99.90;;;;;;5052398;28;20583;-49
2022/11/10 08:53:02;;;;;;;4.03;3.73;;;14.70;99.90;;;;;;5048555;28;20729;-49
2022/11/10 08:55:30;;;;;;;7.23;5.03;;;15.10;99.90;;;;;;5055871;28;20220;-49
2022/11/10 08:58:01;;;;;;;7.93;4.97;;;15.20;99.90;;;;;;5062824;28;20224;-51
2022/11/10 09:00:29;;;;;;;7.00;6.27;;;15.70;99.90;;;;;;5063591;28;20197;-49
2022/11/10 09:02:56;;;;;;;8.60;5.43;;;16.20;99.90;;;;;;5069960;28;20547;-49
2022/11/10 09:05:23;;;;;;;4.87;4.47;;;16.40;99.90;;;;;;5052097;28;20201;-49
2022/11/10 09:07:51;;;;;;;4.93;4.20;;;16.50;99.90;;;;;;5059822;28;20715;-49
2022/11/10 09:10:19;;;;;;;9.60;5.13;;;16.70;99.90;;;;;;5066348;28;20229;-49
2022/11/10 09:12:46;;;;;;;5.13;4.73;;;16.90;99.90;;;;;;5066008;28;20236;-49
2022/11/10 09:15:14;;;;;;;5.17;4.37;;;17.40;99.90;;;;;;5066459;28;20216;-49
2022/11/10 09:17:41;;;;;;;5.17;4.80;;;17.80;99.90;;;;;;5064030;28;20222;-49
2022/11/10 09:20:11;;;;;;;4.47;4.07;;;17.90;99.90;;;;;;5056834;28;20210;-49
2022/11/10 09:22:39;;;;;;;7.37;4.53;;;17.70;99.90;;;;;;5061700;28;20201;-49
2022/11/10 09:25:06;;;;;;;4.47;4.03;;;17.70;99.90;;;;;;5047142;28;20236;-49
2022/11/10 09:27:37;;;;;;;3.90;3.50;;;17.80;99.90;;;;;;5045392;28;20211;-49
2022/11/10 09:30:05;;;;;;;3.60;3.40;;;18.00;99.90;;;;;;5050775;28;20205;-49
2022/11/10 09:32:32;;;;;;;4.97;3.27;;;17.90;99.90;;;;;;5044204;28;20693;-50
2022/11/10 09:35:00;;;;;;;3.37;3.07;;;18.10;99.90;;;;;;5044251;28;20239;-49
2022/11/10 09:37:27;;;;;;;3.80;3.60;;;17.90;99.90;;;;;;5050023;28;20958;-49
2022/11/10 09:39:54;;;;;;;4.27;3.93;;;17.60;99.90;;;;;;5049444;28;20304;-50
2022/11/10 09:42:30;;;;;;;3.03;2.67;;;17.40;99.90;;;;;;5043453;28;20198;-49
2022/11/10 09:45:02;;;;;;;3.93;3.37;;;17.20;99.90;;;;;;5031722;28;20256;-49
2022/11/10 09:47:36;;;;;;;2.80;2.60;;;16.90;99.90;;;;;;5032778;28;20230;-52
2022/11/10 09:50:06;;;;;;;3.43;1.90;;;16.80;99.90;;;;;;5046824;28;20200;-49
2022/11/10 09:52:36;;;;;;;2.50;1.00;;;17.30;99.90;;;;;;5031700;28;20361;-49
2022/11/10 09:55:19;;;;;;;2.97;0.90;;;17.80;99.90;;;;;;5038983;28;20202;-49
2022/11/10 09:57:48;;;;;;;0.80;0.80;;;17.80;99.90;;;;;;5047399;28;20301;-49
2022/11/10 10:00:18;;;;;;;2.37;1.07;;;18.30;99.90;;;;;;5049980;28;20264;-50
2022/11/10 10:02:51;;;;;;;2.70;1.33;;;18.50;99.90;;;;;;5048625;28;20198;-49
2022/11/10 10:05:39;;;;;;;1.27;1.27;;;18.30;99.90;;;;;;5047279;28;20293;-49
2022/11/10 10:08:09;;;;;;;4.33;1.50;;;18.50;99.90;;;;;;5030931;28;20288;-52
2022/11/10 10:10:43;;;;;;;3.63;1.57;;;18.50;99.90;;;;;;5049977;28;20189;-49
2022/11/10 10:13:37;;;;;;;1.47;1.00;;;18.30;99.90;;;;;;5038535;28;20226;-49
2022/11/10 10:16:16;;;;;;;1.40;1.30;;;17.90;99.90;;;;;;5048437;28;20197;-49
2022/11/10 10:18:54;;;;;;;1.80;0.97;;;17.70;99.90;;;;;;5049760;28;20279;-49
2022/11/10 10:21:44;;;;;;;1.33;1.13;;;18.00;99.90;;;;;;5050733;28;20209;-49
2022/11/10 10:24:14;;;;;;;2.73;1.03;;;18.00;99.90;;;;;;5049731;28;20671;-51
2022/11/10 10:26:45;;;;;;;1.57;1.47;;;17.90;99.90;;;;;;5049791;28;20719;-49
2022/11/10 10:29:22;;;;;;;6.10;2.30;;;17.60;99.90;;;;;;5046899;28;20214;-49
2022/11/10 10:31:52;;;;;;;2.07;1.97;;;17.30;99.90;;;;;;5030966;28;20205;-49
2022/11/10 10:34:25;;;;;;;2.20;2.10;;;16.60;99.90;;;;;;5030955;28;20257;-49
2022/11/10 10:36:52;;;;;;;3.23;3.03;;;16.40;99.90;;;;;;5035871;28;20210;-49
2022/11/10 10:39:29;;;;;;;4.30;3.90;;;15.80;99.90;;;;;;5038319;28;20195;-49
2022/11/10 10:41:56;;;;;;;4.50;4.10;;;15.50;99.90;;;;;;5030785;28;20198;-49
2022/11/10 10:44:24;;;;;;;3.80;3.27;;;15.60;99.90;;;;;;5031177;28;20191;-50
2022/11/10 10:46:56;;;;;;;4.10;3.07;;;15.40;99.90;;;;;;5040656;28;20591;-50
2022/11/10 10:49:27;;;;;;;3.63;3.37;;;15.30;99.90;;;;;;5030847;28;20616;-50
2022/11/10 10:52:03;;;;;;;3.60;3.30;;;15.00;99.90;;;;;;5032337;28;20249;-49
2022/11/10 10:54:32;;;;;;;3.20;3.10;;;14.70;99.90;;;;;;5035955;28;20237;-49
2022/11/10 10:57:18;;;;;;;3.20;3.00;;;14.40;99.90;;;;;;5032513;28;20199;-49
2022/11/10 10:59:45;;;;;;;3.70;3.47;;;14.50;99.90;;;;;;5031083;28;20256;-49
2022/11/10 11:02:28;;;;;;;3.47;3.17;;;14.40;99.90;;;;;;5031052;28;20950;-49
2022/11/10 11:05:14;;;;;;;2.97;2.33;;;14.50;99.90;;;;;;5042012;28;20202;-48
2022/11/10 11:07:42;;;;;;;3.57;2.60;;;14.70;99.90;;;;;;5048758;28;20224;-48
2022/11/10 11:10:20;;;;;;;5.67;2.90;;;14.80;99.90;;;;;;5041604;28;20211;-51
2022/11/10 11:12:47;;;;;;;3.40;3.10;;;14.90;99.90;;;;;;5037626;28;20198;-49
2022/11/10 11:15:21;;;;;;;2.77;2.67;;;15.00;99.90;;;;;;5029977;28;20224;-48
2022/11/10 11:17:57;;;;;;;3.07;2.23;;;15.20;99.90;;;;;;5045886;28;20217;-50
2022/11/10 11:20:36;;;;;;;2.47;2.37;;;15.20;99.90;;;;;;5041943;28;20817;-51
2022/11/10 11:23:14;;;;;;;4.27;2.63;;;15.10;99.90;;;;;;5040439;28;20635;-50
2022/11/10 11:25:43;;;;;;;2.87;2.53;;;15.00;99.90;;;;;;5038511;28;20202;-50
2022/11/10 11:28:18;;;;;;;4.33;2.50;;;14.90;99.90;;;;;;5031323;28;20240;-50
2022/11/10 11:30:56;;;;;;;2.80;2.67;;;14.80;99.90;;;;;;5030770;28;20205;-50
2022/11/10 11:33:35;;;;;;;2.17;1.97;;;14.90;99.90;;;;;;5030032;28;20210;-50
2022/11/10 11:36:12;;;;;;;3.03;2.70;;;14.90;99.90;;;;;;5030463;28;20277;-50
2022/11/10 11:38:51;;;;;;;2.27;2.17;;;14.70;99.90;;;;;;5065318;22;20639;-50
2022/11/10 11:41:28;;;;;;;1.87;1.77;;;14.70;99.90;;;;;;5052247;28;20204;-49
2022/11/10 11:44:18;;;;;;;3.57;2.67;;;14.70;99.90;;;;;;5050940;28;20196;-48
2022/11/10 11:46:55;;;;;;;2.20;2.00;;;14.60;99.90;;;;;;5067807;28;20209;-48
2022/11/10 11:49:41;;;;;;;3.10;2.80;;;14.50;99.90;;;;;;5056740;28;20710;-48
2022/11/10 11:52:16;;;;;;;4.77;3.73;;;14.50;99.90;;;;;;5042843;28;20474;-48
2022/11/10 11:54:58;;;;;;;3.53;2.60;;;14.40;99.90;;;;;;5046870;28;20248;-49
2022/11/10 11:57:34;;;;;;;2.10;2.00;;;14.30;99.90;;;;;;5066320;28;20242;-48
2022/11/10 12:00:09;;;;;;;1.50;1.40;;;14.20;99.90;;;;;;5052841;28;20217;-49
2022/11/10 12:02:59;;;;;;;4.13;3.00;;;14.20;99.90;;;;;;5054689;28;20219;-48
2022/11/10 12:05:42;;;;;;;5.43;3.00;;;14.30;99.90;;;;;;5060702;28;20612;-50
2022/11/10 12:08:20;;;;;;;3.63;2.87;;;14.30;99.90;;;;;;5062673;28;20201;-48
2022/11/10 12:10:56;;;;;;;3.07;2.80;;;14.30;99.90;;;;;;5049062;28;20234;-48
2022/11/10 12:13:37;;;;;;;3.57;3.27;;;14.10;99.90;;;;;;5053161;28;20227;-48
2022/11/10 12:16:13;;;;;;;3.40;2.60;;;14.10;99.90;;;;;;5052637;28;20247;-49
2022/11/10 12:18:47;;;;;;;3.20;3.00;;;14.10;99.90;;;;;;5054129;28;20224;-48
2022/11/10 12:21:33;;;;;;;4.23;2.90;;;14.00;99.90;;;;;;5053750;28;20205;-48
2022/11/10 12:24:31;;;;;;;8.60;4.37;;;14.00;99.90;;;;;;5052766;28;20323;-48
2022/11/10 12:27:03;;;;;;;3.70;3.13;;;14.10;99.90;;;;;;5047299;28;20211;-49
2022/11/10 12:29:37;;;;;;;4.20;3.33;;;14.10;99.90;;;;;;5050957;28;20217;-48
2022/11/10 12:32:10;;;;;;;4.83;3.50;;;13.90;99.90;;;;;;5052258;28;20194;-48
2022/11/10 12:34:42;;;;;;;3.33;3.10;;;13.90;99.90;;;;;;5061662;28;20215;-48
2022/11/10 12:37:17;;;;;;;4.33;3.67;;;13.90;99.90;;;;;;5072603;28;20197;-49
2022/11/10 12:39:52;;;;;;;2.67;2.57;;;14.00;99.90;;;;;;5066721;28;20598;-48
2022/11/10 12:42:22;;;;;;;2.70;2.60;;;14.00;99.90;;;;;;5054041;28;20208;-48
2022/11/10 12:44:59;;;;;;;4.20;2.80;;;13.90;99.90;;;;;;5053459;28;20201;-48
2022/11/10 12:47:30;;;;;;;4.37;3.20;;;13.80;99.90;;;;;;5063278;28;20240;-48
2022/11/10 12:50:09;;;;;;;5.80;4.27;;;13.90;99.90;;;;;;5050405;28;20214;-48
2022/11/10 12:52:43;;;;;;;2.80;2.70;;;13.90;99.90;;;;;;5053446;28;20197;-48
2022/11/10 12:55:13;;;;;;;3.87;2.67;;;13.90;99.90;;;;;;5056914;28;20646;-48
2022/11/10 12:57:42;;;;;;;3.40;3.13;;;13.90;99.90;;;;;;5051374;28;20201;-49
2022/11/10 13:00:25;;;;;;;4.77;3.03;;;13.90;99.90;;;;;;5057086;28;20219;-48
2022/11/10 13:02:54;;;;;;;3.23;3.03;;;13.90;99.90;;;;;;5049646;28;20229;-49
2022/11/10 13:05:40;;;;;;;5.50;3.37;;;13.80;99.90;;;;;;5053440;28;20274;-49
2022/11/10 13:08:26;;;;;;;3.67;3.30;;;13.80;99.90;;;;;;5050839;28;20283;-48
2022/11/10 13:10:56;;;;;;;2.60;2.57;;;13.90;99.90;;;;;;5052105;28;20285;-48
2022/11/10 13:13:25;;;;;;;3.80;2.40;;;13.90;99.90;;;;;;5050408;28;20200;-48